Airfield :
LOGIN :

Register | Disclaimer

   EN    FR    IT 

 










Legend :    VFR   Marginal VFR   IFR   Intensive IFR   Very Intensive IFR
Visi :
Ceiling :
>= 8 km
>= 3000ft
5 to 8 km
1000 to 3000 ft
1500m to 5 km
500 to 1000 ft
800 to 1500m
200 to 500 ft
< 800m
< 200 ft
Symbols :   Thunderstorms  Fog  Heavy snow  Heavy precipitations  Wind > 20 kt
SIGMETs :     Misc.  Thunderstorms  Icing  Turbulence  Mountain Waves  Volcanic Ashes






- Airport Elevation : 202 ft
- IATA code : LGW


EGKK - London Gatwick

CURRENT METAR :
  • 250920Z 09004KT 020V150 CAVOK 24/14 Q1016

EXPIRED METARs :
  • 250850Z VRB02KT CAVOK 23/15 Q1016
  • 250820Z VRB02KT CAVOK 22/15 Q1016
  • 250750Z 08003KT 350V150 CAVOK 21/14 Q1016
  • 250720Z VRB03KT CAVOK 20/14 Q1016
  • 250650Z VRB02KT CAVOK 19/14 Q1016
  • 250620Z VRB02KT CAVOK 17/14 Q1016
  • 250550Z VRB01KT CAVOK 16/13 Q1017
  • 250520Z VRB01KT CAVOK 15/13 Q1017

TAF TAF EGKK
Valid from the 25 at 06:00 until the 26 at 12:00 UTC


250457Z 2506/2612 VRB03KT CAVOK
BECMG 2515/2518 19010KT
BECMG 2522/2601 04004KT



MET'MAP, your aeronautical weather chart ! - Copyright ORBIFLY December 2007 - Disclaimer

ORBIFLY MET'MAP TEAM :

Programming & Development : Alexandra Zaïnal
Original concept : Baudouin d'Aumeries
Technical & hardware support : Manuel Goepfert
Assistance : Marc-Olivier Méhu




SOURCES & CREDITS :

   NOAA